createdAt,value
2019-03-19T00:00:58.874Z,96.74
2019-03-19T00:06:01.392Z,96.02
2019-03-19T00:11:05.484Z,97.00
2019-03-19T00:13:33.974Z,96.88
2019-03-19T00:16:21.675Z,96.67
2019-03-19T00:21:43.169Z,97.45
2019-03-19T00:24:11.620Z,98.28
2019-03-19T00:29:13.774Z,97.19
2019-03-19T00:32:01.384Z,96.51
2019-03-19T00:34:29.835Z,95.29
2019-03-19T00:36:58.298Z,96.78
2019-03-19T00:39:26.778Z,95.79
2019-03-19T00:41:55.233Z,95.29
2019-03-19T00:44:23.669Z,96.38
2019-03-19T00:46:52.152Z,95.53
2019-03-19T00:49:20.605Z,95.11
2019-03-19T00:57:10.389Z,95.86
2019-03-19T00:59:38.837Z,95.68
2019-03-19T01:02:26.643Z,95.70
2019-03-19T01:04:55.092Z,95.93
2019-03-19T01:07:23.613Z,96.54
2019-03-19T01:09:52.098Z,96.23
2019-03-19T01:12:21.004Z,95.56
2019-03-19T01:14:49.453Z,96.27
2019-03-19T01:17:18.013Z,96.29
2019-03-19T01:19:46.462Z,95.89
2019-03-19T01:22:14.909Z,96.15
2019-03-19T01:24:43.422Z,95.92
2019-03-19T01:27:11.850Z,95.82
2019-03-19T01:29:40.302Z,96.09
2019-03-19T01:32:08.799Z,95.92
2019-03-19T01:34:37.246Z,95.73
2019-03-19T01:37:05.714Z,94.55
2019-03-19T01:39:34.273Z,93.73
2019-03-19T01:42:02.716Z,94.12
2019-03-19T01:44:31.236Z,94.02
2019-03-19T01:46:59.757Z,94.56
2019-03-19T01:49:28.213Z,95.32
2019-03-19T01:51:56.667Z,95.31
2019-03-19T01:54:25.180Z,95.24
2019-03-19T01:56:53.623Z,95.01
2019-03-19T01:59:22.077Z,95.15
2019-03-19T02:01:50.566Z,95.11
2019-03-19T02:04:19.008Z,96.11
2019-03-19T02:06:47.460Z,95.82
2019-03-19T02:11:49.885Z,95.04
2019-03-19T02:14:18.321Z,95.34
2019-03-19T02:19:20.679Z,96.59
2019-03-19T02:24:23.581Z,96.08
2019-03-19T02:29:25.915Z,96.56
2019-03-19T02:31:54.362Z,96.00
2019-03-19T02:34:22.851Z,96.56
2019-03-19T02:36:51.350Z,96.81
2019-03-19T02:39:19.744Z,96.54
2019-03-19T02:41:48.302Z,95.86
2019-03-19T02:44:16.756Z,95.68
2019-03-19T02:46:45.208Z,95.57
2019-03-19T02:51:48.099Z,96.09
2019-03-19T02:54:35.905Z,95.79
2019-03-19T02:57:04.450Z,95.89
2019-03-19T02:59:32.897Z,96.05
2019-03-19T03:02:01.392Z,94.78
2019-03-19T03:04:29.839Z,95.40
2019-03-19T03:06:58.356Z,96.54
2019-03-19T03:09:26.861Z,96.23
2019-03-19T03:11:55.314Z,96.53
2019-03-19T03:14:23.768Z,96.33
2019-03-19T03:16:52.330Z,95.83
2019-03-19T03:19:20.784Z,96.41
2019-03-19T03:21:49.241Z,96.45
2019-03-19T03:24:18.014Z,97.09
2019-03-19T03:26:48.609Z,96.61
2019-03-19T03:29:35.891Z,97.03
2019-03-19T03:32:23.681Z,96.62
2019-03-19T03:37:45.853Z,96.28
2019-03-19T03:40:54.221Z,96.92
2019-03-19T03:43:22.671Z,96.93
2019-03-19T03:45:51.122Z,96.63
2019-03-19T03:50:53.937Z,96.60
2019-03-19T03:53:22.423Z,96.90
2019-03-19T03:55:50.880Z,96.62
2019-03-19T03:58:19.339Z,96.48
2019-03-19T04:03:41.138Z,97.95
2019-03-19T04:06:28.938Z,97.63
2019-03-19T04:08:57.388Z,96.67
2019-03-19T04:11:25.862Z,96.59
2019-03-19T04:13:54.328Z,95.25
2019-03-19T04:16:22.780Z,95.82
2019-03-19T04:19:10.484Z,96.52
2019-03-19T04:21:38.942Z,96.30
2019-03-19T04:24:07.392Z,94.73
2019-03-19T04:26:55.064Z,96.12
2019-03-19T04:29:23.584Z,96.44
2019-03-19T04:31:52.034Z,95.69
2019-03-19T04:34:20.542Z,95.49
2019-03-19T04:36:49.087Z,95.25
2019-03-19T04:39:17.549Z,95.15
2019-03-19T04:41:46.056Z,95.52
2019-03-19T04:44:14.508Z,95.40
2019-03-19T04:46:42.964Z,95.39
2019-03-19T04:49:11.448Z,96.38
2019-03-19T04:51:39.901Z,96.29
2019-03-19T04:54:27.783Z,96.45
2019-03-19T04:56:56.241Z,96.54
2019-03-19T04:59:24.692Z,96.25
2019-03-19T05:02:12.426Z,96.04
2019-03-19T05:05:00.067Z,96.28
2019-03-19T05:07:28.562Z,95.69
2019-03-19T05:09:57.016Z,96.06
2019-03-19T05:12:25.529Z,96.45
2019-03-19T05:14:53.959Z,96.07
2019-03-19T05:17:22.412Z,95.55
2019-03-19T05:19:50.855Z,95.13
2019-03-19T05:22:19.345Z,94.54
2019-03-19T05:25:07.706Z,94.90
2019-03-19T05:30:50.622Z,96.05
2019-03-19T05:35:53.314Z,96.02
2019-03-19T05:38:21.778Z,96.14
2019-03-19T05:40:50.277Z,96.76
2019-03-19T05:43:18.733Z,96.65
2019-03-19T05:46:06.546Z,96.36
2019-03-19T05:48:34.999Z,95.99
2019-03-19T05:51:22.758Z,96.99
2019-03-19T05:53:51.211Z,99.13
2019-03-19T05:56:19.673Z,98.46
2019-03-19T05:58:48.166Z,97.36
2019-03-19T06:01:35.747Z,97.41
2019-03-19T06:06:58.561Z,96.87
2019-03-19T06:14:51.728Z,97.83
2019-03-19T06:17:20.181Z,97.89
2019-03-19T06:19:48.671Z,97.35
2019-03-19T06:22:17.120Z,98.57
2019-03-19T06:24:45.574Z,98.66
2019-03-19T06:27:14.053Z,98.96
2019-03-19T06:29:42.500Z,98.23
2019-03-19T06:32:10.954Z,97.06
2019-03-19T06:34:39.434Z,97.43
2019-03-19T06:37:07.890Z,97.74
2019-03-19T06:39:36.337Z,97.69
2019-03-19T06:42:24.406Z,97.41
2019-03-19T06:45:12.098Z,97.12
2019-03-19T06:47:40.586Z,96.97
2019-03-19T06:50:28.435Z,96.87
2019-03-19T06:52:56.931Z,96.47
2019-03-19T06:55:25.372Z,96.63
2019-03-19T07:00:46.991Z,95.72
2019-03-19T07:03:15.447Z,95.88
2019-03-19T07:05:43.937Z,95.71
2019-03-19T07:08:31.708Z,95.47
2019-03-19T07:11:00.190Z,95.29
2019-03-19T07:13:47.829Z,94.76
2019-03-19T07:16:16.314Z,94.54
2019-03-19T07:18:44.763Z,94.71
2019-03-19T07:21:13.209Z,94.23
2019-03-19T07:23:41.702Z,94.29
2019-03-19T07:26:10.161Z,94.30
2019-03-19T07:28:38.619Z,93.39
2019-03-19T07:31:07.102Z,92.37
2019-03-19T07:33:35.557Z,91.82
2019-03-19T07:36:06.195Z,92.40
2019-03-19T07:38:53.610Z,91.81
2019-03-19T07:41:41.249Z,91.11
2019-03-19T07:44:09.735Z,91.57
2019-03-19T07:46:38.186Z,90.06
2019-03-19T07:49:06.634Z,89.16
2019-03-19T07:51:54.323Z,88.62
2019-03-19T07:54:22.776Z,90.13
2019-03-19T07:56:51.227Z,90.25
2019-03-19T07:59:19.717Z,89.97
2019-03-19T08:01:48.180Z,89.43
2019-03-19T08:04:16.621Z,87.81
2019-03-19T08:07:04.356Z,88.02
2019-03-19T08:09:32.897Z,88.76
2019-03-19T08:12:01.329Z,88.12
2019-03-19T08:14:29.821Z,88.08
2019-03-19T08:16:58.275Z,87.76
2019-03-19T08:19:26.728Z,86.18
2019-03-19T08:24:29.318Z,86.00
2019-03-19T08:26:57.776Z,85.20
2019-03-19T08:29:26.287Z,84.16
2019-03-19T08:32:14.054Z,83.12
2019-03-19T08:34:42.536Z,83.29
2019-03-19T08:37:10.985Z,82.30
2019-03-19T08:42:33.165Z,81.99
2019-03-19T08:47:35.458Z,80.79
2019-03-19T08:50:43.905Z,80.30
2019-03-19T08:53:12.357Z,78.71
2019-03-19T08:56:01.160Z,79.23
2019-03-19T08:58:30.406Z,78.97
2019-03-19T09:00:58.856Z,77.78
2019-03-19T09:03:27.351Z,78.29
2019-03-19T09:05:55.802Z,78.57
2019-03-19T09:08:24.267Z,77.81
2019-03-19T09:10:52.754Z,78.10
2019-03-19T09:13:40.460Z,78.72
2019-03-19T09:16:08.949Z,77.70
2019-03-19T09:18:37.407Z,77.30
2019-03-19T09:21:05.869Z,76.72
2019-03-19T09:26:08.039Z,75.68
2019-03-19T09:28:55.714Z,74.84
2019-03-19T09:31:24.312Z,73.31
2019-03-19T09:33:52.768Z,74.74
2019-03-19T09:36:40.534Z,73.95
2019-03-19T09:39:28.309Z,73.16
2019-03-19T09:44:30.823Z,72.50
2019-03-19T09:46:59.289Z,68.17
2019-03-19T09:52:02.021Z,66.16
2019-03-19T09:57:23.907Z,64.65
2019-03-19T09:59:52.393Z,65.30
2019-03-19T10:02:20.852Z,66.56
2019-03-19T10:04:49.296Z,66.45
2019-03-19T10:07:17.781Z,63.10
2019-03-19T10:09:46.229Z,65.65
2019-03-19T10:12:14.701Z,64.93
2019-03-19T10:14:43.196Z,65.10
2019-03-19T10:17:30.829Z,63.27
2019-03-19T10:19:59.308Z,61.92
2019-03-19T10:22:27.772Z,62.29
2019-03-19T10:28:03.085Z,59.86
2019-03-19T10:30:50.861Z,57.17
2019-03-19T10:33:38.815Z,57.70
2019-03-19T10:36:07.374Z,58.32
2019-03-19T10:38:35.796Z,59.42
2019-03-19T10:41:04.391Z,61.50
2019-03-19T10:43:32.842Z,60.88
2019-03-19T10:46:20.510Z,60.15
2019-03-19T10:49:08.178Z,59.17
2019-03-19T10:54:10.236Z,56.20
2019-03-19T10:56:39.079Z,57.59
2019-03-19T10:59:08.898Z,55.25
2019-03-19T11:01:37.353Z,53.64
2019-03-19T11:04:05.875Z,54.83
2019-03-19T11:06:34.369Z,56.31
2019-03-19T11:14:25.732Z,54.80
2019-03-19T11:20:45.618Z,55.14
2019-03-19T11:23:14.931Z,55.39
2019-03-19T11:25:53.950Z,54.31
2019-03-19T11:28:13.927Z,54.59
2019-03-19T11:30:43.755Z,53.95
2019-03-19T11:33:31.454Z,52.40
2019-03-19T11:36:19.140Z,51.62
2019-03-19T11:38:47.657Z,51.46
2019-03-19T11:41:16.110Z,52.40
2019-03-19T11:46:18.228Z,51.88
2019-03-19T11:51:20.640Z,51.50
2019-03-19T11:53:49.163Z,51.38
2019-03-19T11:56:17.614Z,51.18
2019-03-19T11:58:46.067Z,50.60
2019-03-19T12:01:34.131Z,50.58
2019-03-19T12:04:21.699Z,50.31
2019-03-19T12:06:50.199Z,50.02
2019-03-19T12:09:18.646Z,49.95
2019-03-19T12:11:47.106Z,49.84
2019-03-19T12:14:15.675Z,49.90
2019-03-19T12:16:44.127Z,48.09
2019-03-19T12:19:12.590Z,46.84
2019-03-19T12:24:15.031Z,47.62
2019-03-19T12:26:43.482Z,47.26
2019-03-19T12:29:31.182Z,47.37
2019-03-19T12:31:59.707Z,47.72
2019-03-19T12:34:47.470Z,48.79
2019-03-19T12:37:15.926Z,48.97
2019-03-19T12:39:44.379Z,48.87
2019-03-19T12:44:47.386Z,48.74
2019-03-19T12:47:15.841Z,48.15
2019-03-19T12:52:18.897Z,47.88
2019-03-19T12:57:21.678Z,47.88
2019-03-19T12:59:50.130Z,47.18
2019-03-19T13:02:18.625Z,47.55
2019-03-19T13:05:06.269Z,47.14
2019-03-19T13:07:34.753Z,48.05
2019-03-19T13:10:43.138Z,47.02
2019-03-19T13:15:46.063Z,47.42
2019-03-19T13:18:14.552Z,46.66
2019-03-19T13:23:52.537Z,46.98
2019-03-19T13:26:21.001Z,46.66
2019-03-19T13:28:49.469Z,46.36
2019-03-19T13:31:17.961Z,47.09
2019-03-19T13:33:46.419Z,47.81
2019-03-19T13:36:14.883Z,49.38
2019-03-19T13:41:17.234Z,47.20
2019-03-19T13:44:04.835Z,46.39
2019-03-19T13:46:33.287Z,46.25
2019-03-19T13:49:01.737Z,44.73
2019-03-19T13:51:30.277Z,45.27
2019-03-19T13:53:58.806Z,45.73
2019-03-19T13:56:27.269Z,45.39
2019-03-19T14:01:30.207Z,46.33
2019-03-19T14:03:58.665Z,46.06
2019-03-19T14:06:27.215Z,44.67
2019-03-19T14:11:52.444Z,45.66
2019-03-19T14:14:20.899Z,45.07
2019-03-19T14:17:29.322Z,45.17
2019-03-19T14:19:57.796Z,45.78
2019-03-19T14:22:26.246Z,44.75
2019-03-19T14:27:29.162Z,44.04
2019-03-19T14:29:57.650Z,43.85
2019-03-19T14:32:26.112Z,44.70
2019-03-19T14:34:54.565Z,43.56
2019-03-19T14:37:23.064Z,44.09
2019-03-19T14:39:51.515Z,45.32
2019-03-19T14:42:39.333Z,44.82
2019-03-19T14:45:47.702Z,45.12
2019-03-19T14:48:16.195Z,45.68
2019-03-19T14:51:03.979Z,46.27
2019-03-19T14:56:26.241Z,44.09
2019-03-19T14:58:54.764Z,44.79
2019-03-19T15:01:23.216Z,44.55
2019-03-19T15:03:51.693Z,43.57
2019-03-19T15:06:20.186Z,44.11
2019-03-19T15:08:48.665Z,44.01
2019-03-19T15:11:17.113Z,44.05
2019-03-19T15:16:19.553Z,45.40
2019-03-19T15:18:48.004Z,45.93
2019-03-19T15:21:16.524Z,46.05
2019-03-19T15:23:44.973Z,45.54
2019-03-19T15:26:13.427Z,46.04
2019-03-19T15:28:41.922Z,45.58
2019-03-19T15:31:30.247Z,45.78
2019-03-19T15:36:33.863Z,45.31
2019-03-19T15:44:43.622Z,46.63
2019-03-19T15:47:12.123Z,47.17
2019-03-19T15:49:40.605Z,47.77
2019-03-19T15:52:09.132Z,47.53
2019-03-19T15:54:37.615Z,47.42
2019-03-19T15:57:06.135Z,47.19
2019-03-19T15:59:34.588Z,47.24
2019-03-19T16:02:03.067Z,46.84
2019-03-19T16:04:31.522Z,46.99
2019-03-19T16:06:59.979Z,47.88
2019-03-19T16:09:28.495Z,47.42
2019-03-19T16:11:56.947Z,46.88
2019-03-19T16:14:25.501Z,46.72
2019-03-19T16:19:27.874Z,46.84
2019-03-19T16:21:56.335Z,46.03
2019-03-19T16:24:24.821Z,44.83
2019-03-19T16:26:53.338Z,45.69
2019-03-19T16:29:21.796Z,43.65
2019-03-19T16:31:51.199Z,43.83
2019-03-19T16:34:21.528Z,42.67
2019-03-19T16:36:50.065Z,43.62
2019-03-19T16:39:18.587Z,42.74
2019-03-19T16:41:47.060Z,42.04
2019-03-19T16:44:15.517Z,42.80
2019-03-19T16:46:44.258Z,43.61
2019-03-19T16:49:12.792Z,45.27
2019-03-19T16:51:41.328Z,45.79
2019-03-19T16:54:09.978Z,45.08
2019-03-19T16:56:38.425Z,45.46
2019-03-19T16:59:06.888Z,45.38
2019-03-19T17:01:35.378Z,46.26
2019-03-19T17:04:04.026Z,47.45
2019-03-19T17:06:32.497Z,46.31
2019-03-19T17:09:01.059Z,46.43
2019-03-19T17:11:29.518Z,46.32
2019-03-19T17:13:57.970Z,46.86
2019-03-19T17:16:28.192Z,47.51
2019-03-19T17:18:56.675Z,47.90
2019-03-19T17:21:25.094Z,48.81
2019-03-19T17:23:53.623Z,48.89
2019-03-19T17:26:22.100Z,48.87
2019-03-19T17:28:50.549Z,49.23
2019-03-19T17:31:19.135Z,50.40
2019-03-19T17:33:47.604Z,51.21
2019-03-19T17:36:16.046Z,51.00
2019-03-19T17:38:44.531Z,51.25
2019-03-19T17:41:12.985Z,52.20
2019-03-19T17:43:41.426Z,52.65
2019-03-19T17:46:10.001Z,52.80
2019-03-19T17:48:38.450Z,52.72
2019-03-19T17:51:06.994Z,52.84
2019-03-19T17:53:35.546Z,53.56
2019-03-19T17:56:04.172Z,53.05
2019-03-19T17:58:32.641Z,53.44
2019-03-19T18:01:01.226Z,53.37
2019-03-19T18:03:29.673Z,52.95
2019-03-19T18:05:58.122Z,53.52
2019-03-19T18:08:26.729Z,54.35
2019-03-19T18:10:55.178Z,55.85
2019-03-19T18:13:23.699Z,56.96
2019-03-19T18:15:52.211Z,58.07
2019-03-19T18:18:20.669Z,58.30
2019-03-19T18:20:49.184Z,59.97
2019-03-19T18:23:17.809Z,61.13
2019-03-19T18:25:46.233Z,63.32
2019-03-19T18:28:14.679Z,65.79
2019-03-19T18:30:43.505Z,65.75
2019-03-19T18:33:11.961Z,65.33
2019-03-19T18:35:40.409Z,64.41
2019-03-19T18:38:09.063Z,64.77
2019-03-19T18:40:37.516Z,64.93
2019-03-19T18:43:06.108Z,64.65
2019-03-19T18:45:34.701Z,63.89
2019-03-19T18:48:03.161Z,63.26
2019-03-19T18:50:31.690Z,63.36
2019-03-19T18:53:00.376Z,64.43
2019-03-19T18:55:28.822Z,65.48
2019-03-19T18:57:57.275Z,65.63
2019-03-19T19:00:25.791Z,65.65
2019-03-19T19:02:54.237Z,65.98
2019-03-19T19:05:24.088Z,66.68
2019-03-19T19:07:52.627Z,67.54
2019-03-19T19:10:21.726Z,67.84
2019-03-19T19:12:50.630Z,68.18
2019-03-19T19:15:25.552Z,68.31
2019-03-19T19:17:54.078Z,67.44
2019-03-19T19:20:22.628Z,67.42
2019-03-19T19:22:51.249Z,67.51
2019-03-19T19:25:21.812Z,67.56
2019-03-19T19:27:50.335Z,67.01
2019-03-19T19:30:20.952Z,67.56
2019-03-19T19:33:00.450Z,67.94
2019-03-19T19:35:19.872Z,69.21
2019-03-19T19:37:48.447Z,68.60
2019-03-19T19:40:17.742Z,70.29
2019-03-19T19:42:46.337Z,70.56
2019-03-19T19:45:17.093Z,71.11
2019-03-19T19:47:45.783Z,71.22
2019-03-19T19:50:23.859Z,71.35
2019-03-19T19:52:52.324Z,70.75
2019-03-19T19:55:20.775Z,71.33
2019-03-19T19:57:49.329Z,71.36
2019-03-19T20:00:19.888Z,72.71
2019-03-19T20:02:48.502Z,72.90
2019-03-19T20:05:17.241Z,72.68
2019-03-19T20:07:45.984Z,73.03
2019-03-19T20:10:20.126Z,72.65
2019-03-19T20:12:48.689Z,72.01
2019-03-19T20:15:17.479Z,71.14
2019-03-19T20:17:45.994Z,73.14
2019-03-19T20:20:23.178Z,73.81
2019-03-19T20:22:51.631Z,71.70
2019-03-19T20:25:20.183Z,72.09
2019-03-19T20:27:48.675Z,72.67
2019-03-19T20:30:27.320Z,72.97
2019-03-19T20:32:55.872Z,74.42
2019-03-19T20:35:24.456Z,75.16
2019-03-19T20:37:52.975Z,75.33
2019-03-19T20:40:21.533Z,75.64
2019-03-19T20:42:50.050Z,76.77
2019-03-19T20:45:23.941Z,77.29
2019-03-19T20:47:52.650Z,77.07
2019-03-19T20:50:38.219Z,77.56
2019-03-19T20:53:07.323Z,77.22
2019-03-19T20:55:35.880Z,77.83
2019-03-19T20:58:04.782Z,77.45
2019-03-19T21:00:33.487Z,78.28
2019-03-19T21:03:01.941Z,79.44
2019-03-19T21:05:30.392Z,79.91
2019-03-19T21:07:59.031Z,80.18
2019-03-19T21:10:27.614Z,80.09
2019-03-19T21:12:56.069Z,80.29
2019-03-19T21:15:27.239Z,80.48
2019-03-19T21:17:55.823Z,81.06
2019-03-19T21:20:24.434Z,80.76
2019-03-19T21:22:53.017Z,80.47
2019-03-19T21:25:21.705Z,80.71
2019-03-19T21:27:50.296Z,81.10
2019-03-19T21:30:21.302Z,81.63
2019-03-19T21:32:49.885Z,80.88
2019-03-19T21:35:23.013Z,81.12
2019-03-19T21:37:52.076Z,80.75
2019-03-19T21:40:20.586Z,80.23
2019-03-19T21:42:49.201Z,80.79
2019-03-19T21:45:19.034Z,81.63
2019-03-19T21:47:47.548Z,82.21
2019-03-19T21:50:20.078Z,82.34
2019-03-19T21:53:28.643Z,82.59
2019-03-19T21:56:16.419Z,83.28
2019-03-19T22:01:18.803Z,83.68
2019-03-19T22:04:27.209Z,83.76
2019-03-19T22:06:55.654Z,83.66
2019-03-19T22:09:24.111Z,83.63
2019-03-19T22:11:52.628Z,83.82
2019-03-19T22:14:21.078Z,83.83
2019-03-19T22:16:49.701Z,84.93
2019-03-19T22:19:18.250Z,84.46
2019-03-19T22:21:46.698Z,84.28
2019-03-19T22:24:15.145Z,84.77
2019-03-19T22:26:43.663Z,85.42
2019-03-19T22:29:12.825Z,85.90
2019-03-19T22:31:41.406Z,85.36
2019-03-19T22:34:14.170Z,85.31
2019-03-19T22:36:40.194Z,84.21
2019-03-19T22:39:09.393Z,84.14
2019-03-19T22:41:37.962Z,85.48
2019-03-19T22:44:06.477Z,85.39
2019-03-19T22:46:34.993Z,85.93
2019-03-19T22:49:03.611Z,86.54
2019-03-19T22:51:32.048Z,86.41
2019-03-19T22:54:00.509Z,86.70
2019-03-19T22:56:28.996Z,86.35
2019-03-19T22:58:57.445Z,87.13
2019-03-19T23:01:25.982Z,86.82
2019-03-19T23:03:54.553Z,86.06
2019-03-19T23:06:23.007Z,87.04
2019-03-19T23:08:51.531Z,87.13
2019-03-19T23:11:20.025Z,86.44
2019-03-19T23:13:48.833Z,86.32
2019-03-19T23:16:17.422Z,87.07
2019-03-19T23:18:45.905Z,86.75
2019-03-19T23:21:14.497Z,86.82
2019-03-19T23:23:42.942Z,86.11
2019-03-19T23:26:11.551Z,86.66
2019-03-19T23:28:40.002Z,87.67
2019-03-19T23:31:08.450Z,87.46
2019-03-19T23:33:36.936Z,87.27
2019-03-19T23:36:05.517Z,87.38
2019-03-19T23:38:34.830Z,87.23
2019-03-19T23:41:03.315Z,87.92
2019-03-19T23:43:31.902Z,89.19
2019-03-19T23:46:00.433Z,89.01
2019-03-19T23:48:29.010Z,88.96
2019-03-19T23:50:57.462Z,88.53
2019-03-19T23:53:25.977Z,88.30
2019-03-19T23:55:54.478Z,87.74
2019-03-19T23:58:22.931Z,88.49
